createdAt,value
2023-03-17T00:00:44.556Z,100232.04
2023-03-17T00:03:32.206Z,100240.52
2023-03-17T00:06:02.105Z,100245.54
2023-03-17T00:08:34.075Z,100247.45
2023-03-17T00:11:10.205Z,100246.61
2023-03-17T00:13:38.827Z,100239.36
2023-03-17T00:16:20.042Z,100224.83
2023-03-17T00:18:50.409Z,100220.50
2023-03-17T00:21:26.137Z,100220.50
2023-03-17T00:23:56.380Z,100220.53
2023-03-17T00:26:26.038Z,100222.27
2023-03-17T00:28:55.312Z,100225.20
2023-03-17T00:31:29.754Z,100228.69
2023-03-17T00:33:59.748Z,100221.26
2023-03-17T00:36:31.055Z,100216.79
2023-03-17T00:39:00.110Z,100213.52
2023-03-17T00:41:29.736Z,100205.74
2023-03-17T00:43:57.863Z,100203.35
2023-03-17T00:46:36.178Z,100209.41
2023-03-17T00:51:45.111Z,100212.56
2023-03-17T00:54:14.581Z,100212.57
2023-03-17T00:56:51.347Z,100212.60
2023-03-17T00:59:26.195Z,100209.16
2023-03-17T01:01:55.609Z,100198.63
2023-03-17T01:04:24.519Z,100192.23
2023-03-17T01:06:54.287Z,100191.55
2023-03-17T01:09:27.201Z,100184.64
2023-03-17T01:11:56.074Z,100178.26
2023-03-17T01:14:25.061Z,100176.88
2023-03-17T01:16:56.741Z,100171.87
2023-03-17T01:19:25.399Z,100167.72
2023-03-17T01:21:53.700Z,100161.84
2023-03-17T01:24:22.461Z,100157.52
2023-03-17T01:26:51.155Z,100154.40
2023-03-17T01:29:20.238Z,100150.08
2023-03-17T01:31:48.570Z,100141.23
2023-03-17T01:34:16.767Z,100136.75
2023-03-17T01:36:45.447Z,100136.40
2023-03-17T01:39:14.658Z,100136.94
2023-03-17T01:41:43.212Z,100134.88
2023-03-17T01:44:17.419Z,100138.51
2023-03-17T01:46:47.707Z,100139.05
2023-03-17T01:49:30.585Z,100141.14
2023-03-17T01:52:18.216Z,100140.98
2023-03-17T01:55:16.267Z,100139.09
2023-03-17T01:57:53.681Z,100129.26
2023-03-17T02:00:24.981Z,100130.28
2023-03-17T02:02:56.354Z,100125.27
2023-03-17T02:05:28.624Z,100125.63
2023-03-17T02:07:57.570Z,100121.14
2023-03-17T02:10:29.052Z,100115.77
2023-03-17T02:13:04.271Z,100114.23
2023-03-17T02:15:50.200Z,100117.35
2023-03-17T02:18:21.980Z,100115.45
2023-03-17T02:20:50.438Z,100113.90
2023-03-17T02:23:23.557Z,100115.46
2023-03-17T02:25:54.236Z,100111.80
2023-03-17T02:28:28.159Z,100109.91
2023-03-17T02:30:57.571Z,100114.41
2023-03-17T02:33:27.888Z,100111.46
2023-03-17T02:35:57.232Z,100114.58
2023-03-17T02:38:26.218Z,100112.15
2023-03-17T02:40:54.360Z,100102.65
2023-03-17T02:43:23.132Z,100095.57
2023-03-17T02:45:51.417Z,100099.38
2023-03-17T02:48:21.000Z,100097.48
2023-03-17T02:50:49.237Z,100089.55
2023-03-17T02:53:17.711Z,100084.55
2023-03-17T02:55:45.874Z,100080.91
2023-03-17T02:58:14.042Z,100074.02
2023-03-17T03:00:42.835Z,100080.75
2023-03-17T03:03:10.954Z,100081.97
2023-03-17T03:05:39.409Z,100081.63
2023-03-17T03:08:07.856Z,100085.77
2023-03-17T03:10:36.476Z,100085.24
2023-03-17T03:13:05.076Z,100082.84
2023-03-17T03:15:33.332Z,100086.98
2023-03-17T03:18:02.768Z,100088.20
2023-03-17T03:20:31.171Z,100088.53
2023-03-17T03:23:02.095Z,100088.17
2023-03-17T03:25:30.306Z,100089.73
2023-03-17T03:27:59.314Z,100090.42
2023-03-17T03:30:28.616Z,100087.48
2023-03-17T03:32:57.234Z,100081.09
2023-03-17T03:35:25.508Z,100080.06
2023-03-17T03:37:53.851Z,100080.58
2023-03-17T03:40:25.858Z,100080.75
2023-03-17T03:42:54.459Z,100076.95
2023-03-17T03:45:23.180Z,100077.80
2023-03-17T03:47:51.749Z,100070.21
2023-03-17T03:50:21.273Z,100066.06
2023-03-17T03:52:50.304Z,100062.10
2023-03-17T03:55:19.011Z,100054.50
2023-03-17T03:57:47.318Z,100053.80
2023-03-17T04:00:16.508Z,100056.91
2023-03-17T04:02:48.047Z,100052.77
2023-03-17T04:05:18.755Z,100045.84
2023-03-17T04:07:48.114Z,100050.34
2023-03-17T04:10:19.945Z,100048.26
2023-03-17T04:12:48.812Z,100038.76
2023-03-17T04:15:19.759Z,100035.29
2023-03-17T04:17:48.147Z,100029.42
2023-03-17T04:20:17.244Z,100031.86
2023-03-17T04:22:45.698Z,100035.83
2023-03-17T04:25:15.696Z,100041.52
2023-03-17T04:27:44.830Z,100042.58
2023-03-17T04:30:17.088Z,100041.55
2023-03-17T04:32:46.586Z,100041.03
2023-03-17T04:35:17.443Z,100044.48
2023-03-17T04:37:45.761Z,100045.53
2023-03-17T04:40:15.939Z,100036.38
2023-03-17T04:42:44.666Z,100038.62
2023-03-17T04:45:17.408Z,100035.84
2023-03-17T04:47:47.428Z,100032.91
2023-03-17T04:50:15.987Z,100036.89
2023-03-17T04:52:44.431Z,100035.86
2023-03-17T04:55:12.833Z,100037.23
2023-03-17T04:57:42.038Z,100032.73
2023-03-17T05:00:15.630Z,100038.11
2023-03-17T05:02:44.356Z,100039.48
2023-03-17T05:05:13.148Z,100044.14
2023-03-17T05:07:42.116Z,100042.77
2023-03-17T05:10:12.585Z,100046.56
2023-03-17T05:12:41.355Z,100044.84
2023-03-17T05:15:11.376Z,100045.02
2023-03-17T05:17:40.198Z,100045.36
2023-03-17T05:20:13.270Z,100047.61
2023-03-17T05:22:43.712Z,100051.40
2023-03-17T05:25:11.815Z,100048.11
2023-03-17T05:27:49.775Z,100043.61
2023-03-17T05:30:18.619Z,100037.91
2023-03-17T05:32:47.167Z,100035.15
2023-03-17T05:35:15.780Z,100037.39
2023-03-17T05:37:44.072Z,100035.48
2023-03-17T05:40:13.156Z,100033.91
2023-03-17T05:42:42.832Z,100037.52
2023-03-17T05:45:11.924Z,100043.74
2023-03-17T05:47:40.154Z,100043.38
2023-03-17T05:50:10.579Z,100041.95
2023-03-17T05:52:39.400Z,100040.20
2023-03-17T05:55:08.652Z,100037.73
2023-03-17T05:57:36.829Z,100037.54
2023-03-17T06:00:05.589Z,100037.49
2023-03-17T06:02:34.409Z,100032.63
2023-03-17T06:05:04.048Z,100033.30
2023-03-17T06:07:41.283Z,100027.40
2023-03-17T06:10:13.905Z,100025.44
2023-03-17T06:12:42.169Z,100022.63
2023-03-17T06:15:10.941Z,100018.98
2023-03-17T06:17:40.092Z,100018.79
2023-03-17T06:20:09.317Z,100008.91
2023-03-17T06:22:39.743Z,100007.67
2023-03-17T06:25:13.891Z,100007.83
2023-03-17T06:27:42.858Z,100010.73
2023-03-17T06:30:12.611Z,100013.30
2023-03-17T06:32:40.810Z,100016.56
2023-03-17T06:35:09.665Z,100013.83
2023-03-17T06:37:38.425Z,100007.42
2023-03-17T06:40:10.322Z,100002.07
2023-03-17T06:42:38.310Z,99999.98
2023-03-17T06:45:09.469Z,99995.29
2023-03-17T06:47:38.411Z,99994.23
2023-03-17T06:50:09.893Z,99996.42
2023-03-17T06:52:38.800Z,100001.06
2023-03-17T06:55:08.705Z,100014.35
2023-03-17T06:57:37.559Z,100024.83
2023-03-17T07:00:07.193Z,100029.08
2023-03-17T07:02:35.769Z,100030.61
2023-03-17T07:05:04.742Z,100026.39
2023-03-17T07:07:32.936Z,100027.85
2023-03-17T07:10:02.292Z,100028.77
2023-03-17T07:12:30.594Z,100030.55
2023-03-17T07:14:59.679Z,100025.44
2023-03-17T07:17:28.307Z,100025.69
2023-03-17T07:19:59.030Z,100024.63
2023-03-17T07:22:27.561Z,100016.55
2023-03-17T07:24:55.757Z,100014.55
2023-03-17T07:27:25.611Z,100014.45
2023-03-17T07:29:54.221Z,100011.09
2023-03-17T07:32:22.446Z,100006.89
2023-03-17T07:34:50.728Z,100009.73
2023-03-17T07:37:19.644Z,100008.92
2023-03-17T07:39:48.380Z,100012.98
2023-03-17T07:42:17.702Z,100008.47
2023-03-17T07:44:46.135Z,100002.98
2023-03-17T07:47:15.048Z,100001.13
2023-03-17T07:49:44.114Z,100003.14
2023-03-17T07:52:12.924Z,99996.64
2023-03-17T07:54:43.157Z,99997.49
2023-03-17T07:57:12.394Z,100002.80
2023-03-17T07:59:41.818Z,99997.35
2023-03-17T08:02:16.696Z,99994.32
2023-03-17T08:04:45.584Z,99994.30
2023-03-17T08:07:14.794Z,99994.56
2023-03-17T08:09:43.137Z,100002.04
2023-03-17T08:12:11.999Z,100007.77
2023-03-17T08:14:41.544Z,100007.41
2023-03-17T08:17:10.754Z,100003.30
2023-03-17T08:19:39.191Z,100010.52
2023-03-17T08:22:08.087Z,100015.03
2023-03-17T08:24:37.336Z,100025.29
2023-03-17T08:27:05.743Z,100022.61
2023-03-17T08:29:35.096Z,100022.52
2023-03-17T08:32:03.748Z,100019.15
2023-03-17T08:34:32.302Z,100025.09
2023-03-17T08:37:01.607Z,100019.47
2023-03-17T08:39:30.783Z,100007.64
2023-03-17T08:41:59.147Z,99990.96
2023-03-17T08:44:27.648Z,99966.27
2023-03-17T08:46:57.157Z,99954.98
2023-03-17T08:49:26.555Z,99951.83
2023-03-17T08:51:54.797Z,99966.05
2023-03-17T08:54:23.272Z,99955.73
2023-03-17T08:56:51.482Z,99939.40
2023-03-17T08:59:19.837Z,99941.81
2023-03-17T09:01:49.078Z,99936.48
2023-03-17T09:04:17.664Z,99926.00
2023-03-17T09:07:01.975Z,99931.12
2023-03-17T09:09:32.390Z,99928.61
2023-03-17T09:12:03.439Z,99917.08
2023-03-17T09:14:43.462Z,99927.65
2023-03-17T09:17:14.678Z,99935.98
2023-03-17T09:19:43.828Z,99933.11
2023-03-17T09:22:14.825Z,99937.77
2023-03-17T09:24:44.813Z,99942.39
2023-03-17T09:27:13.821Z,99941.97
2023-03-17T09:29:42.812Z,99944.32
2023-03-17T09:32:11.668Z,99943.83
2023-03-17T09:34:40.017Z,99938.33
2023-03-17T09:37:10.057Z,99926.92
2023-03-17T09:39:38.343Z,99915.67
2023-03-17T09:42:28.239Z,99906.83
2023-03-17T09:45:20.585Z,99899.84
2023-03-17T09:48:01.350Z,99886.60
2023-03-17T09:50:53.890Z,99884.33
2023-03-17T09:53:28.390Z,99884.98
2023-03-17T09:55:59.167Z,99885.13
2023-03-17T09:58:35.795Z,99875.70
2023-03-17T10:01:07.977Z,99875.66
2023-03-17T10:03:37.661Z,99875.55
2023-03-17T10:06:30.853Z,99872.66
2023-03-17T10:09:40.423Z,99875.98
2023-03-17T10:12:42.000Z,99879.88
2023-03-17T10:15:23.741Z,99872.11
2023-03-17T10:17:52.657Z,99874.77
2023-03-17T10:20:26.258Z,99871.21
2023-03-17T10:23:01.886Z,99873.54
2023-03-17T10:25:37.628Z,99862.60
2023-03-17T10:28:12.510Z,99854.09
2023-03-17T10:30:40.941Z,99850.23
2023-03-17T10:33:09.709Z,99847.18
2023-03-17T10:35:39.752Z,99842.72
2023-03-17T10:38:17.321Z,99838.41
2023-03-17T10:40:54.822Z,99842.04
2023-03-17T10:43:29.270Z,99840.44
2023-03-17T10:46:06.530Z,99829.65
2023-03-17T10:48:38.912Z,99833.58
2023-03-17T10:51:10.593Z,99832.76
2023-03-17T10:53:44.730Z,99824.59
2023-03-17T10:56:42.458Z,99825.77
2023-03-17T10:59:28.454Z,99823.83
2023-03-17T11:02:00.385Z,99823.53
2023-03-17T11:04:39.318Z,99827.03
2023-03-17T11:07:21.521Z,99824.17
2023-03-17T11:09:51.779Z,99826.10
2023-03-17T11:12:27.219Z,99827.14
2023-03-17T11:15:00.802Z,99821.12
2023-03-17T11:17:35.369Z,99810.54
2023-03-17T11:20:34.984Z,99807.95
2023-03-17T11:23:10.933Z,99807.62
2023-03-17T11:25:42.819Z,99806.06
2023-03-17T11:28:21.101Z,99805.19
2023-03-17T11:31:31.240Z,99802.91
2023-03-17T11:34:07.158Z,99795.67
2023-03-17T11:36:44.889Z,99797.09
2023-03-17T11:39:17.656Z,99794.66
2023-03-17T11:42:07.534Z,99792.41
2023-03-17T11:44:44.446Z,99793.33
2023-03-17T11:47:18.808Z,99788.42
2023-03-17T11:49:58.674Z,99780.05
2023-03-17T11:52:39.085Z,99781.56
2023-03-17T11:55:16.647Z,99777.94
2023-03-17T11:57:58.552Z,99777.02
2023-03-17T12:00:45.774Z,99779.21
2023-03-17T12:03:28.132Z,99774.13
2023-03-17T12:06:01.711Z,99777.66
2023-03-17T12:08:30.048Z,99774.08
2023-03-17T12:11:02.631Z,99767.16
2023-03-17T12:13:40.139Z,99760.47
2023-03-17T12:16:18.405Z,99760.02
2023-03-17T12:19:32.777Z,99751.92
2023-03-17T12:22:21.116Z,99761.99
2023-03-17T12:25:18.208Z,99757.46
2023-03-17T12:28:04.086Z,99756.55
2023-03-17T12:30:45.739Z,99755.89
2023-03-17T12:33:40.017Z,99753.66
2023-03-17T12:36:14.964Z,99748.51
2023-03-17T12:39:12.758Z,99747.50
2023-03-17T12:41:44.679Z,99740.98
2023-03-17T12:44:39.417Z,99744.19
2023-03-17T12:47:46.186Z,99741.72
2023-03-17T12:50:45.080Z,99740.37
2023-03-17T12:53:30.123Z,99732.48
2023-03-17T12:56:27.125Z,99730.70
2023-03-17T12:59:06.326Z,99731.64
2023-03-17T13:01:39.982Z,99729.42
2023-03-17T13:04:22.300Z,99729.38
2023-03-17T13:07:10.319Z,99731.59
2023-03-17T13:09:50.950Z,99732.54
2023-03-17T13:12:46.834Z,99731.35
2023-03-17T13:15:37.495Z,99726.41
2023-03-17T13:18:15.660Z,99725.55
2023-03-17T13:20:59.592Z,99727.23
2023-03-17T13:23:40.119Z,99723.03
2023-03-17T13:26:11.400Z,99720.10
2023-03-17T13:28:50.425Z,99723.02
2023-03-17T13:31:31.091Z,99716.56
2023-03-17T13:34:18.102Z,99713.19
2023-03-17T13:36:55.830Z,99705.42
2023-03-17T13:39:25.013Z,99701.05
2023-03-17T13:42:26.945Z,99693.56
2023-03-17T13:45:09.471Z,99694.96
2023-03-17T13:47:42.811Z,99692.00
2023-03-17T13:50:22.691Z,99685.31
2023-03-17T13:53:10.598Z,99684.29
2023-03-17T13:55:43.756Z,99679.23
2023-03-17T13:58:12.367Z,99678.40
2023-03-17T14:00:45.485Z,99680.00
2023-03-17T14:03:20.172Z,99678.19
2023-03-17T14:05:52.213Z,99676.52
2023-03-17T14:08:39.430Z,99670.69
2023-03-17T14:11:22.729Z,99668.48
2023-03-17T14:14:00.598Z,99663.70
2023-03-17T14:16:35.143Z,99659.14
2023-03-17T14:19:20.814Z,99664.79
2023-03-17T14:21:49.661Z,99660.55
2023-03-17T14:24:29.155Z,99658.27
2023-03-17T14:26:57.561Z,99655.55
2023-03-17T14:29:31.583Z,99654.27
2023-03-17T14:32:13.363Z,99653.88
2023-03-17T14:34:54.569Z,99650.02
2023-03-17T14:37:23.192Z,99647.32
2023-03-17T14:39:55.277Z,99652.90
2023-03-17T14:42:31.894Z,99650.63
2023-03-17T14:45:06.906Z,99651.89
2023-03-17T14:47:41.490Z,99647.41
2023-03-17T14:50:31.757Z,99641.67
2023-03-17T14:53:01.144Z,99639.23
2023-03-17T14:55:43.528Z,99642.23
2023-03-17T14:58:30.629Z,99639.63
2023-03-17T15:01:08.096Z,99638.39
2023-03-17T15:04:06.255Z,99637.77
2023-03-17T15:06:37.544Z,99633.59
2023-03-17T15:09:24.687Z,99632.66
2023-03-17T15:11:56.673Z,99631.48
2023-03-17T15:14:38.975Z,99632.67
2023-03-17T15:17:20.241Z,99632.98
2023-03-17T15:19:52.851Z,99631.73
2023-03-17T15:22:29.693Z,99629.98
2023-03-17T15:25:02.649Z,99627.90
2023-03-17T15:27:32.094Z,99625.05
2023-03-17T15:30:00.547Z,99624.84
2023-03-17T15:32:29.338Z,99620.20
2023-03-17T15:34:58.042Z,99619.33
2023-03-17T15:37:29.575Z,99616.28
2023-03-17T15:39:58.180Z,99614.11
2023-03-17T15:42:32.875Z,99614.25
2023-03-17T15:45:04.981Z,99613.20
2023-03-17T15:47:37.018Z,99611.61
2023-03-17T15:50:16.532Z,99609.85
2023-03-17T15:52:48.157Z,99607.09
2023-03-17T15:55:29.502Z,99598.05
2023-03-17T15:57:58.805Z,99595.29
2023-03-17T16:00:30.509Z,99596.67
2023-03-17T16:03:04.939Z,99602.94
2023-03-17T16:05:35.172Z,99600.95
2023-03-17T16:08:03.827Z,99599.81
2023-03-17T16:10:34.665Z,99593.31
2023-03-17T16:13:03.286Z,99594.56
2023-03-17T16:15:37.252Z,99591.30
2023-03-17T16:18:18.373Z,99589.19
2023-03-17T16:20:49.516Z,99587.23
2023-03-17T16:23:25.114Z,99588.33
2023-03-17T16:25:59.284Z,99582.02
2023-03-17T16:28:33.657Z,99582.11
2023-03-17T16:31:04.710Z,99583.54
2023-03-17T16:33:40.479Z,99581.95
2023-03-17T16:36:15.677Z,99581.27
2023-03-17T16:38:44.435Z,99584.23
2023-03-17T16:41:24.950Z,99578.38
2023-03-17T16:43:59.409Z,99576.52
2023-03-17T16:46:34.838Z,99580.09
2023-03-17T16:49:04.981Z,99580.92
2023-03-17T16:51:33.424Z,99579.19
2023-03-17T16:54:01.712Z,99584.31
2023-03-17T16:56:31.731Z,99586.81
2023-03-17T16:59:01.182Z,99584.70
2023-03-17T17:01:30.307Z,99583.70
2023-03-17T17:03:58.620Z,99581.65
2023-03-17T17:06:27.331Z,99576.02
2023-03-17T17:08:55.609Z,99573.92
2023-03-17T17:11:23.790Z,99571.42
2023-03-17T17:14:02.457Z,99564.86
2023-03-17T17:16:34.998Z,99567.39
2023-03-17T17:19:04.441Z,99569.91
2023-03-17T17:21:33.264Z,99566.32
2023-03-17T17:24:01.490Z,99562.16
2023-03-17T17:26:32.819Z,99559.16
2023-03-17T17:29:01.302Z,99564.30
2023-03-17T17:31:30.143Z,99565.05
2023-03-17T17:33:58.492Z,99567.73
2023-03-17T17:36:27.403Z,99569.87
2023-03-17T17:38:55.822Z,99572.56
2023-03-17T17:41:34.625Z,99570.02
2023-03-17T17:44:02.994Z,99576.70
2023-03-17T17:46:32.967Z,99578.16
2023-03-17T17:49:01.515Z,99574.95
2023-03-17T17:51:31.267Z,99577.35
2023-03-17T17:54:00.679Z,99575.62
2023-03-17T17:56:29.401Z,99578.31
2023-03-17T17:58:57.774Z,99579.16
2023-03-17T18:01:26.167Z,99575.84
2023-03-17T18:03:54.569Z,99575.20
2023-03-17T18:06:23.262Z,99579.44
2023-03-17T18:08:51.893Z,99579.47
2023-03-17T18:11:21.165Z,99572.02
2023-03-17T18:13:49.540Z,99573.80
2023-03-17T18:16:19.373Z,99578.21
2023-03-17T18:18:47.726Z,99574.83
2023-03-17T18:21:17.608Z,99581.33
2023-03-17T18:23:49.890Z,99588.61
2023-03-17T18:26:18.603Z,99590.36
2023-03-17T18:28:48.040Z,99588.08
2023-03-17T18:31:25.211Z,99587.95
2023-03-17T18:33:57.499Z,99590.34
2023-03-17T18:36:27.552Z,99593.08
2023-03-17T18:38:56.939Z,99590.85
2023-03-17T18:41:27.266Z,99588.86
2023-03-17T18:43:55.670Z,99589.01
2023-03-17T18:46:24.336Z,99586.91
2023-03-17T18:48:52.786Z,99582.92
2023-03-17T18:51:21.957Z,99581.71
2023-03-17T18:53:50.398Z,99584.14
2023-03-17T18:56:18.648Z,99582.05
2023-03-17T18:58:47.377Z,99578.48
2023-03-17T19:01:16.455Z,99575.96
2023-03-17T19:03:45.335Z,99580.12
2023-03-17T19:06:17.206Z,99578.05
2023-03-17T19:08:47.753Z,99576.58
2023-03-17T19:11:19.630Z,99571.54
2023-03-17T19:13:54.730Z,99564.19
2023-03-17T19:16:29.125Z,99564.67
2023-03-17T19:18:59.513Z,99561.23
2023-03-17T19:21:33.425Z,99559.36
2023-03-17T19:24:03.583Z,99558.70
2023-03-17T19:26:34.263Z,99555.59
2023-03-17T19:29:03.416Z,99553.44
2023-03-17T19:31:31.940Z,99546.53
2023-03-17T19:34:00.720Z,99547.22
2023-03-17T19:36:36.090Z,99546.65
2023-03-17T19:39:06.946Z,99544.01
2023-03-17T19:41:38.830Z,99541.13
2023-03-17T19:44:07.955Z,99539.90
2023-03-17T19:46:37.366Z,99540.95
2023-03-17T19:49:08.175Z,99538.93
2023-03-17T19:51:39.426Z,99542.85
2023-03-17T19:54:08.820Z,99542.46
2023-03-17T19:56:38.905Z,99543.97
2023-03-17T19:59:09.225Z,99544.30
2023-03-17T20:01:38.645Z,99543.92
2023-03-17T20:04:10.211Z,99540.21
2023-03-17T20:07:00.663Z,99537.77
2023-03-17T20:09:38.065Z,99535.14
2023-03-17T20:12:06.329Z,99534.76
2023-03-17T20:14:37.147Z,99536.95
2023-03-17T20:17:05.904Z,99536.20
2023-03-17T20:19:41.849Z,99532.82
2023-03-17T20:22:11.173Z,99526.02
2023-03-17T20:24:45.861Z,99522.90
2023-03-17T20:27:17.594Z,99519.83
2023-03-17T20:29:59.096Z,99523.09
2023-03-17T20:32:32.870Z,99519.91
2023-03-17T20:35:06.789Z,99511.69
2023-03-17T20:37:46.029Z,99509.36
2023-03-17T20:40:23.510Z,99508.61
2023-03-17T20:42:52.824Z,99509.58
2023-03-17T20:45:21.850Z,99510.60
2023-03-17T20:47:50.933Z,99511.79
2023-03-17T20:50:19.507Z,99508.91
2023-03-17T20:52:49.718Z,99507.59
2023-03-17T20:55:25.540Z,99506.40
2023-03-17T20:57:54.328Z,99503.84
2023-03-17T21:00:23.472Z,99500.63
2023-03-17T21:02:52.647Z,99498.99
2023-03-17T21:05:25.485Z,99498.64
2023-03-17T21:07:54.468Z,99503.18
2023-03-17T21:10:23.710Z,99501.52
2023-03-17T21:12:52.758Z,99500.21
2023-03-17T21:15:23.139Z,99495.80
2023-03-17T21:17:51.630Z,99495.93
2023-03-17T21:20:21.399Z,99496.33
2023-03-17T21:22:50.138Z,99498.69
2023-03-17T21:25:19.255Z,99502.97
2023-03-17T21:27:47.817Z,99501.07
2023-03-17T21:30:16.789Z,99499.00
2023-03-17T21:32:45.198Z,99496.98
2023-03-17T21:35:14.894Z,99501.19
2023-03-17T21:37:43.921Z,99503.00
2023-03-17T21:40:15.792Z,99504.33
2023-03-17T21:42:44.438Z,99503.23
2023-03-17T21:45:12.913Z,99508.85
2023-03-17T21:47:44.562Z,99506.80
2023-03-17T21:50:15.365Z,99508.31
2023-03-17T21:52:49.542Z,99514.02
2023-03-17T21:55:21.453Z,99519.39
2023-03-17T21:57:50.739Z,99515.58
2023-03-17T22:00:44.673Z,99514.60
2023-03-17T22:03:14.923Z,99518.55
2023-03-17T22:05:44.481Z,99517.31
2023-03-17T22:08:13.760Z,99513.55
2023-03-17T22:10:42.466Z,99509.81
2023-03-17T22:13:14.118Z,99508.30
2023-03-17T22:15:43.091Z,99507.13
2023-03-17T22:18:23.558Z,99510.19
2023-03-17T22:20:57.132Z,99513.63
2023-03-17T22:23:26.803Z,99508.89
2023-03-17T22:25:56.655Z,99501.42
2023-03-17T22:28:25.690Z,99500.52
2023-03-17T22:31:00.577Z,99501.84
2023-03-17T22:33:36.913Z,99503.91
2023-03-17T22:36:09.281Z,99505.30
2023-03-17T22:38:38.781Z,99503.09
2023-03-17T22:41:12.964Z,99506.14
2023-03-17T22:43:42.452Z,99503.33
2023-03-17T22:46:12.390Z,99503.97
2023-03-17T22:48:41.739Z,99500.36
2023-03-17T22:51:13.696Z,99494.80
2023-03-17T22:53:46.204Z,99495.61
2023-03-17T22:56:16.715Z,99498.88
2023-03-17T22:58:46.299Z,99495.82
2023-03-17T23:01:16.987Z,99500.73
2023-03-17T23:03:46.233Z,99502.20
2023-03-17T23:06:19.861Z,99505.18
2023-03-17T23:08:48.881Z,99506.88
2023-03-17T23:11:26.573Z,99509.05
2023-03-17T23:13:57.674Z,99514.90
2023-03-17T23:16:32.602Z,99517.27
2023-03-17T23:19:05.216Z,99516.73
2023-03-17T23:21:38.742Z,99517.86
2023-03-17T23:24:14.193Z,99520.95
2023-03-17T23:26:43.934Z,99517.06
2023-03-17T23:29:15.108Z,99522.58
2023-03-17T23:31:43.998Z,99529.34
2023-03-17T23:34:14.697Z,99523.59
2023-03-17T23:36:43.083Z,99521.48
2023-03-17T23:39:11.812Z,99514.61
2023-03-17T23:41:40.673Z,99507.64
2023-03-17T23:44:09.517Z,99500.55
2023-03-17T23:46:39.197Z,99499.80
2023-03-17T23:49:12.410Z,99498.00
2023-03-17T23:51:41.111Z,99499.04
2023-03-17T23:54:10.448Z,99494.61
2023-03-17T23:56:42.273Z,99494.11
2023-03-17T23:59:10.971Z,99496.41
